createdAt,value
2023-03-17T00:01:37.940Z,49.06
2023-03-17T00:04:05.029Z,48.46
2023-03-17T00:06:33.858Z,48.62
2023-03-17T00:09:00.579Z,48.86
2023-03-17T00:11:27.714Z,48.88
2023-03-17T00:13:54.494Z,49.68
2023-03-17T00:16:23.853Z,49.07
2023-03-17T00:18:51.437Z,50.29
2023-03-17T00:21:23.590Z,49.76
2023-03-17T00:23:51.836Z,49.73
2023-03-17T00:26:19.763Z,49.61
2023-03-17T00:28:46.944Z,50.16
2023-03-17T00:31:16.826Z,49.72
2023-03-17T00:33:46.584Z,49.57
2023-03-17T00:36:19.225Z,50.00
2023-03-17T00:38:46.270Z,49.44
2023-03-17T00:41:13.319Z,49.43
2023-03-17T00:43:40.799Z,48.78
2023-03-17T00:46:16.677Z,49.48
2023-03-17T00:48:44.889Z,50.76
2023-03-17T00:51:12.473Z,50.62
2023-03-17T00:53:39.859Z,50.26
2023-03-17T00:56:13.481Z,49.77
2023-03-17T00:58:40.199Z,49.45
2023-03-17T01:01:06.843Z,49.76
2023-03-17T01:03:33.430Z,50.09
2023-03-17T01:06:00.192Z,49.47
2023-03-17T01:08:27.481Z,50.57
2023-03-17T01:10:54.811Z,50.43
2023-03-17T01:13:21.365Z,49.91
2023-03-17T01:15:49.588Z,49.68
2023-03-17T01:18:17.944Z,49.24
2023-03-17T01:20:45.595Z,49.81
2023-03-17T01:23:12.901Z,50.91
2023-03-17T01:25:41.457Z,49.62
2023-03-17T01:28:10.770Z,49.66
2023-03-17T01:30:40.324Z,49.85
2023-03-17T01:33:10.595Z,49.41
2023-03-17T01:35:38.385Z,49.33
2023-03-17T01:38:05.913Z,49.96
2023-03-17T01:40:38.948Z,50.89
2023-03-17T01:43:08.400Z,50.50
2023-03-17T01:46:12.866Z,49.71
2023-03-17T01:48:51.476Z,49.60
2023-03-17T01:51:23.917Z,49.30
2023-03-17T01:53:52.919Z,50.68
2023-03-17T01:56:19.878Z,50.78
2023-03-17T01:58:50.664Z,50.12
2023-03-17T02:01:17.907Z,49.27
2023-03-17T02:03:45.195Z,50.06
2023-03-17T02:06:12.897Z,50.03
2023-03-17T02:08:39.449Z,50.21
2023-03-17T02:11:06.160Z,50.08
2023-03-17T02:13:33.337Z,50.61
2023-03-17T02:16:00.490Z,50.57
2023-03-17T02:18:27.232Z,50.29
2023-03-17T02:20:53.712Z,50.45
2023-03-17T02:23:24.842Z,49.73
2023-03-17T02:25:52.894Z,49.42
2023-03-17T02:28:23.687Z,50.53
2023-03-17T02:30:50.311Z,50.49
2023-03-17T02:33:17.780Z,50.10
2023-03-17T02:35:44.571Z,50.48
2023-03-17T02:38:11.185Z,50.67
2023-03-17T02:40:37.793Z,50.79
2023-03-17T02:43:05.768Z,51.52
2023-03-17T02:45:32.342Z,50.63
2023-03-17T02:47:59.425Z,50.42
2023-03-17T02:50:28.898Z,51.19
2023-03-17T02:52:56.121Z,51.26
2023-03-17T02:55:22.699Z,51.23
2023-03-17T02:57:49.249Z,51.31
2023-03-17T03:00:16.024Z,51.00
2023-03-17T03:02:43.070Z,51.77
2023-03-17T03:05:10.815Z,51.24
2023-03-17T03:07:37.531Z,50.33
2023-03-17T03:10:05.564Z,50.68
2023-03-17T03:12:32.945Z,50.65
2023-03-17T03:14:59.576Z,51.36
2023-03-17T03:17:26.412Z,51.83
2023-03-17T03:19:52.996Z,52.14
2023-03-17T03:22:19.542Z,51.14
2023-03-17T03:24:46.176Z,51.82
2023-03-17T03:27:12.741Z,51.91
2023-03-17T03:29:39.356Z,51.36
2023-03-17T03:32:06.612Z,51.29
2023-03-17T03:34:33.250Z,51.77
2023-03-17T03:36:59.869Z,52.34
2023-03-17T03:39:26.624Z,52.15
2023-03-17T03:41:55.586Z,51.13
2023-03-17T03:44:22.131Z,51.21
2023-03-17T03:46:48.758Z,51.51
2023-03-17T03:49:15.637Z,51.31
2023-03-17T03:51:42.231Z,50.43
2023-03-17T03:54:08.796Z,51.08
2023-03-17T03:56:35.360Z,51.71
2023-03-17T03:59:02.049Z,52.11
2023-03-17T04:01:28.855Z,51.61
2023-03-17T04:03:55.421Z,51.29
2023-03-17T04:06:21.974Z,51.71
2023-03-17T04:08:48.509Z,51.09
2023-03-17T04:11:15.066Z,51.48
2023-03-17T04:13:41.636Z,52.00
2023-03-17T04:16:08.301Z,51.96
2023-03-17T04:18:35.717Z,51.87
2023-03-17T04:21:02.330Z,51.25
2023-03-17T04:23:29.006Z,51.94
2023-03-17T04:25:55.855Z,52.40
2023-03-17T04:28:22.632Z,51.94
2023-03-17T04:30:49.170Z,51.20
2023-03-17T04:33:15.731Z,50.63
2023-03-17T04:35:42.383Z,52.26
2023-03-17T04:38:10.470Z,51.73
2023-03-17T04:40:37.018Z,51.44
2023-03-17T04:43:03.697Z,50.69
2023-03-17T04:45:30.534Z,50.71
2023-03-17T04:47:57.118Z,51.12
2023-03-17T04:50:23.653Z,51.68
2023-03-17T04:52:50.206Z,50.76
2023-03-17T04:55:17.143Z,50.65
2023-03-17T04:57:44.412Z,51.41
2023-03-17T05:00:12.768Z,52.08
2023-03-17T05:02:39.430Z,51.47
2023-03-17T05:05:06.028Z,50.91
2023-03-17T05:07:34.132Z,50.44
2023-03-17T05:10:00.906Z,50.46
2023-03-17T05:12:27.875Z,50.38
2023-03-17T05:14:54.423Z,49.98
2023-03-17T05:17:21.479Z,50.31
2023-03-17T05:19:48.270Z,50.39
2023-03-17T05:22:14.868Z,50.62
2023-03-17T05:24:41.426Z,50.69
2023-03-17T05:27:08.008Z,50.16
2023-03-17T05:29:34.646Z,50.97
2023-03-17T05:32:01.187Z,51.10
2023-03-17T05:34:27.768Z,50.86
2023-03-17T05:36:54.468Z,50.75
2023-03-17T05:39:21.058Z,50.27
2023-03-17T05:41:48.110Z,50.05
2023-03-17T05:44:14.688Z,49.91
2023-03-17T05:46:41.251Z,49.68
2023-03-17T05:49:07.981Z,50.62
2023-03-17T05:51:36.813Z,50.84
2023-03-17T05:54:03.706Z,50.05
2023-03-17T05:56:33.792Z,50.01
2023-03-17T05:59:01.801Z,49.86
2023-03-17T06:01:28.745Z,49.53
2023-03-17T06:03:55.347Z,49.78
2023-03-17T06:06:21.889Z,49.12
2023-03-17T06:08:48.455Z,49.11
2023-03-17T06:11:15.004Z,48.92
2023-03-17T06:13:41.646Z,49.15
2023-03-17T06:16:08.445Z,49.31
2023-03-17T06:18:35.834Z,49.10
2023-03-17T06:21:02.417Z,48.80
2023-03-17T06:23:28.958Z,48.44
2023-03-17T06:25:55.803Z,49.66
2023-03-17T06:28:22.419Z,49.23
2023-03-17T06:30:49.011Z,49.12
2023-03-17T06:33:16.030Z,48.59
2023-03-17T06:35:42.710Z,48.02
2023-03-17T06:38:09.274Z,48.88
2023-03-17T06:40:36.137Z,49.00
2023-03-17T06:43:03.101Z,49.63
2023-03-17T06:45:30.464Z,49.41
2023-03-17T06:47:57.145Z,49.49
2023-03-17T06:50:23.763Z,49.29
2023-03-17T06:52:50.410Z,49.43
2023-03-17T06:55:17.622Z,48.16
2023-03-17T06:57:44.219Z,47.65
2023-03-17T07:00:14.190Z,47.76
2023-03-17T07:02:43.175Z,47.64
2023-03-17T07:05:09.895Z,48.61
2023-03-17T07:07:36.789Z,48.40
2023-03-17T07:10:03.975Z,47.66
2023-03-17T07:12:30.539Z,47.96
2023-03-17T07:14:58.073Z,48.17
2023-03-17T07:17:25.333Z,47.68
2023-03-17T07:19:52.502Z,47.03
2023-03-17T07:22:19.071Z,46.96
2023-03-17T07:24:47.037Z,46.40
2023-03-17T07:27:14.476Z,46.56
2023-03-17T07:29:41.565Z,46.46
2023-03-17T07:32:09.441Z,45.15
2023-03-17T07:34:36.020Z,44.82
2023-03-17T07:37:03.068Z,45.29
2023-03-17T07:39:29.734Z,45.15
2023-03-17T07:41:56.332Z,45.42
2023-03-17T07:44:23.586Z,45.04
2023-03-17T07:46:50.911Z,45.19
2023-03-17T07:49:22.755Z,45.07
2023-03-17T07:51:54.273Z,45.92
2023-03-17T07:54:21.271Z,43.75
2023-03-17T07:56:47.922Z,43.72
2023-03-17T07:59:15.376Z,43.71
2023-03-17T08:01:41.971Z,41.71
2023-03-17T08:04:10.859Z,40.70
2023-03-17T08:06:38.658Z,40.53
2023-03-17T08:09:05.181Z,40.11
2023-03-17T08:11:32.165Z,40.40
2023-03-17T08:14:00.020Z,40.62
2023-03-17T08:16:26.628Z,40.57
2023-03-17T08:18:53.353Z,41.08
2023-03-17T08:21:20.328Z,40.73
2023-03-17T08:23:47.280Z,40.61
2023-03-17T08:26:14.420Z,40.19
2023-03-17T08:28:41.143Z,39.02
2023-03-17T08:31:12.207Z,39.30
2023-03-17T08:33:41.168Z,37.32
2023-03-17T08:36:09.528Z,37.44
2023-03-17T08:38:40.437Z,37.03
2023-03-17T08:41:09.398Z,37.33
2023-03-17T08:43:36.978Z,38.25
2023-03-17T08:46:07.251Z,38.04
2023-03-17T08:48:35.461Z,38.81
2023-03-17T08:51:02.512Z,38.77
2023-03-17T08:53:29.921Z,38.82
2023-03-17T08:55:57.330Z,38.91
2023-03-17T08:58:24.444Z,38.88
2023-03-17T09:00:52.511Z,38.48
2023-03-17T09:03:19.064Z,38.91
2023-03-17T09:05:45.671Z,38.24
2023-03-17T09:08:13.182Z,38.37
2023-03-17T09:10:39.841Z,37.75
2023-03-17T09:13:06.452Z,38.08
2023-03-17T09:15:38.038Z,38.19
2023-03-17T09:18:05.879Z,37.50
2023-03-17T09:20:33.196Z,36.86
2023-03-17T09:23:00.013Z,37.87
2023-03-17T09:25:27.350Z,37.23
2023-03-17T09:27:53.970Z,35.77
2023-03-17T09:30:20.566Z,36.19
2023-03-17T09:32:47.276Z,36.02
2023-03-17T09:35:14.020Z,35.43
2023-03-17T09:37:41.020Z,35.33
2023-03-17T09:40:09.294Z,35.11
2023-03-17T09:43:08.173Z,35.22
2023-03-17T09:45:42.950Z,35.41
2023-03-17T09:48:28.287Z,34.38
2023-03-17T09:51:02.972Z,35.88
2023-03-17T09:53:34.631Z,33.76
2023-03-17T09:56:07.156Z,33.60
2023-03-17T09:58:35.154Z,33.02
2023-03-17T10:01:03.426Z,33.33
2023-03-17T10:03:30.094Z,33.65
2023-03-17T10:06:16.368Z,33.93
2023-03-17T10:08:58.851Z,33.41
2023-03-17T10:11:35.473Z,33.12
2023-03-17T10:14:13.858Z,32.19
2023-03-17T10:16:48.475Z,33.23
2023-03-17T10:19:29.348Z,33.21
2023-03-17T10:22:05.642Z,32.12
2023-03-17T10:24:33.076Z,33.49
2023-03-17T10:27:04.918Z,33.98
2023-03-17T10:29:32.529Z,32.80
2023-03-17T10:31:59.381Z,32.04
2023-03-17T10:34:29.699Z,31.85
2023-03-17T10:37:13.955Z,31.54
2023-03-17T10:39:54.632Z,31.49
2023-03-17T10:42:26.802Z,30.99
2023-03-17T10:45:15.226Z,30.82
2023-03-17T10:47:45.814Z,31.06
2023-03-17T10:50:15.573Z,30.80
2023-03-17T10:52:42.646Z,31.90
2023-03-17T10:55:14.354Z,30.32
2023-03-17T10:58:06.344Z,29.84
2023-03-17T11:00:38.512Z,29.86
2023-03-17T11:03:34.147Z,30.71
2023-03-17T11:06:04.112Z,30.43
2023-03-17T11:08:32.518Z,30.33
2023-03-17T11:10:59.134Z,30.40
2023-03-17T11:13:30.193Z,29.85
2023-03-17T11:16:22.460Z,28.28
2023-03-17T11:18:51.604Z,28.55
2023-03-17T11:21:23.419Z,28.83
2023-03-17T11:23:52.823Z,27.45
2023-03-17T11:26:38.143Z,27.80
2023-03-17T11:29:26.445Z,27.66
2023-03-17T11:31:59.457Z,27.27
2023-03-17T11:34:35.023Z,27.23
2023-03-17T11:37:21.758Z,26.73
2023-03-17T11:40:10.712Z,27.33
2023-03-17T11:43:16.202Z,28.06
2023-03-17T11:45:48.882Z,30.19
2023-03-17T11:48:30.529Z,27.66
2023-03-17T11:51:03.806Z,27.57
2023-03-17T11:53:49.888Z,26.92
2023-03-17T11:56:37.301Z,28.05
2023-03-17T11:59:06.664Z,27.45
2023-03-17T12:02:03.207Z,28.34
2023-03-17T12:04:34.484Z,28.00
2023-03-17T12:07:09.234Z,27.94
2023-03-17T12:09:40.911Z,27.60
2023-03-17T12:12:08.018Z,27.57
2023-03-17T12:14:49.170Z,27.79
2023-03-17T12:17:26.879Z,27.95
2023-03-17T12:19:58.640Z,28.54
2023-03-17T12:22:30.626Z,29.09
2023-03-17T12:25:11.158Z,28.44
2023-03-17T12:27:54.472Z,28.94
2023-03-17T12:30:34.543Z,28.97
2023-03-17T12:33:11.023Z,29.68
2023-03-17T12:35:40.966Z,30.39
2023-03-17T12:38:12.131Z,31.07
2023-03-17T12:40:54.650Z,30.56
2023-03-17T12:43:43.032Z,29.59
2023-03-17T12:46:43.700Z,29.21
2023-03-17T12:49:31.797Z,30.02
2023-03-17T12:52:12.434Z,30.74
2023-03-17T12:54:39.663Z,30.32
2023-03-17T12:57:17.512Z,30.46
2023-03-17T12:59:46.188Z,30.33
2023-03-17T13:02:23.943Z,30.00
2023-03-17T13:05:00.700Z,30.63
2023-03-17T13:07:33.465Z,30.89
2023-03-17T13:10:02.956Z,31.15
2023-03-17T13:12:44.679Z,30.97
2023-03-17T13:15:28.281Z,30.85
2023-03-17T13:18:15.415Z,30.99
2023-03-17T13:20:52.713Z,31.14
2023-03-17T13:23:23.606Z,31.33
2023-03-17T13:25:53.702Z,31.00
2023-03-17T13:28:27.135Z,30.60
2023-03-17T13:31:08.854Z,30.95
2023-03-17T13:33:36.313Z,31.06
2023-03-17T13:36:09.472Z,31.13
2023-03-17T13:38:43.670Z,30.76
2023-03-17T13:41:18.696Z,31.12
2023-03-17T13:44:00.689Z,30.93
2023-03-17T13:46:34.124Z,31.32
2023-03-17T13:49:21.336Z,31.29
2023-03-17T13:52:11.632Z,32.42
2023-03-17T13:54:47.458Z,30.50
2023-03-17T13:57:25.696Z,30.58
2023-03-17T13:59:56.344Z,31.38
2023-03-17T14:02:25.063Z,29.51
2023-03-17T14:04:54.871Z,29.58
2023-03-17T14:07:24.160Z,30.46
2023-03-17T14:09:53.459Z,30.42
2023-03-17T14:12:25.208Z,30.12
2023-03-17T14:15:07.944Z,30.72
2023-03-17T14:17:45.060Z,31.35
2023-03-17T14:20:18.568Z,32.07
2023-03-17T14:22:47.083Z,32.08
2023-03-17T14:25:24.492Z,31.69
2023-03-17T14:27:57.134Z,31.40
2023-03-17T14:30:26.616Z,32.13
2023-03-17T14:33:03.971Z,31.45
2023-03-17T14:35:32.977Z,31.76
2023-03-17T14:38:00.900Z,31.43
2023-03-17T14:40:30.168Z,31.69
2023-03-17T14:42:57.585Z,31.50
2023-03-17T14:45:32.856Z,31.50
2023-03-17T14:48:01.815Z,32.41
2023-03-17T14:50:31.265Z,32.27
2023-03-17T14:52:59.518Z,33.67
2023-03-17T14:55:43.232Z,32.58
2023-03-17T14:58:20.328Z,33.42
2023-03-17T15:00:54.825Z,33.70
2023-03-17T15:03:23.841Z,33.65
2023-03-17T15:05:50.618Z,33.44
2023-03-17T15:08:41.056Z,33.71
2023-03-17T15:11:08.418Z,33.32
2023-03-17T15:13:37.299Z,33.32
2023-03-17T15:16:16.939Z,33.00
2023-03-17T15:18:43.925Z,33.30
2023-03-17T15:21:43.120Z,33.08
2023-03-17T15:24:29.757Z,33.58
2023-03-17T15:27:20.389Z,33.33
2023-03-17T15:29:48.324Z,32.88
2023-03-17T15:32:26.122Z,33.67
2023-03-17T15:34:56.633Z,33.83
2023-03-17T15:37:26.017Z,33.63
2023-03-17T15:39:53.775Z,33.66
2023-03-17T15:42:22.434Z,33.41
2023-03-17T15:44:49.020Z,33.73
2023-03-17T15:47:17.267Z,34.84
2023-03-17T15:49:44.800Z,34.07
2023-03-17T15:52:16.380Z,34.48
2023-03-17T15:54:43.721Z,34.70
2023-03-17T15:57:13.522Z,34.48
2023-03-17T15:59:40.936Z,33.80
2023-03-17T16:02:22.222Z,34.60
2023-03-17T16:04:48.999Z,34.28
2023-03-17T16:07:15.567Z,34.27
2023-03-17T16:09:45.759Z,34.53
2023-03-17T16:12:13.026Z,35.58
2023-03-17T16:14:39.840Z,34.59
2023-03-17T16:17:07.155Z,35.41
2023-03-17T16:19:33.918Z,34.54
2023-03-17T16:22:00.884Z,34.17
2023-03-17T16:24:28.234Z,34.91
2023-03-17T16:26:56.091Z,34.65
2023-03-17T16:29:22.882Z,34.38
2023-03-17T16:31:50.961Z,35.69
2023-03-17T16:34:19.764Z,35.63
2023-03-17T16:36:46.334Z,36.43
2023-03-17T16:39:22.530Z,35.41
2023-03-17T16:41:50.117Z,35.93
2023-03-17T16:44:18.892Z,36.10
2023-03-17T16:46:45.777Z,36.90
2023-03-17T16:49:14.819Z,36.13
2023-03-17T16:51:41.845Z,36.04
2023-03-17T16:54:08.772Z,36.28
2023-03-17T16:56:35.748Z,35.53
2023-03-17T16:59:02.493Z,35.76
2023-03-17T17:01:29.662Z,36.12
2023-03-17T17:03:56.332Z,36.67
2023-03-17T17:06:23.593Z,36.36
2023-03-17T17:08:50.950Z,35.89
2023-03-17T17:11:18.878Z,37.43
2023-03-17T17:13:47.698Z,37.37
2023-03-17T17:16:24.899Z,37.18
2023-03-17T17:18:51.694Z,36.58
2023-03-17T17:21:18.252Z,37.33
2023-03-17T17:23:44.879Z,37.30
2023-03-17T17:26:11.469Z,37.71
2023-03-17T17:28:40.036Z,37.94
2023-03-17T17:31:08.432Z,37.43
2023-03-17T17:33:35.913Z,37.78
2023-03-17T17:36:04.797Z,37.41
2023-03-17T17:38:31.488Z,37.80
2023-03-17T17:40:59.995Z,37.34
2023-03-17T17:43:27.226Z,38.07
2023-03-17T17:45:53.807Z,38.65
2023-03-17T17:48:25.307Z,37.87
2023-03-17T17:50:53.423Z,38.88
2023-03-17T17:53:20.067Z,39.77
2023-03-17T17:55:48.398Z,38.72
2023-03-17T17:58:16.462Z,39.11
2023-03-17T18:00:43.429Z,40.48
2023-03-17T18:03:10.103Z,40.58
2023-03-17T18:05:36.970Z,39.14
2023-03-17T18:08:04.069Z,39.63
2023-03-17T18:10:31.057Z,40.41
2023-03-17T18:12:58.016Z,39.45
2023-03-17T18:15:25.886Z,38.99
2023-03-17T18:17:53.067Z,39.21
2023-03-17T18:20:21.848Z,39.50
2023-03-17T18:22:49.651Z,39.77
2023-03-17T18:25:16.589Z,39.43
2023-03-17T18:27:43.613Z,40.10
2023-03-17T18:30:13.511Z,40.56
2023-03-17T18:32:41.117Z,38.99
2023-03-17T18:35:10.358Z,38.47
2023-03-17T18:37:37.209Z,38.92
2023-03-17T18:40:14.276Z,39.67
2023-03-17T18:42:43.227Z,39.00
2023-03-17T18:45:11.674Z,39.40
2023-03-17T18:47:39.143Z,39.59
2023-03-17T18:50:08.136Z,39.63
2023-03-17T18:52:37.037Z,40.03
2023-03-17T18:55:04.459Z,39.80
2023-03-17T18:57:31.292Z,39.17
2023-03-17T18:59:58.438Z,39.54
2023-03-17T19:02:25.083Z,40.44
2023-03-17T19:04:51.716Z,41.01
2023-03-17T19:07:18.631Z,39.93
2023-03-17T19:09:45.349Z,39.48
2023-03-17T19:12:12.431Z,39.72
2023-03-17T19:14:39.948Z,40.21
2023-03-17T19:17:07.618Z,40.12
2023-03-17T19:19:35.419Z,40.36
2023-03-17T19:22:02.166Z,41.09
2023-03-17T19:24:29.217Z,42.21
2023-03-17T19:26:55.926Z,40.78
2023-03-17T19:29:22.505Z,40.41
2023-03-17T19:31:49.071Z,41.29
2023-03-17T19:34:15.620Z,42.07
2023-03-17T19:36:43.799Z,40.96
2023-03-17T19:39:10.945Z,40.22
2023-03-17T19:41:37.548Z,40.88
2023-03-17T19:44:06.832Z,40.42
2023-03-17T19:46:34.714Z,41.10
2023-03-17T19:49:01.688Z,40.28
2023-03-17T19:51:28.364Z,40.94
2023-03-17T19:53:55.202Z,40.86
2023-03-17T19:56:23.134Z,40.84
2023-03-17T19:58:49.862Z,41.14
2023-03-17T20:01:17.221Z,41.21
2023-03-17T20:03:43.904Z,41.08
2023-03-17T20:06:12.240Z,42.39
2023-03-17T20:08:39.575Z,42.70
2023-03-17T20:11:06.730Z,41.68
2023-03-17T20:13:34.845Z,42.02
2023-03-17T20:16:01.983Z,42.42
2023-03-17T20:18:29.111Z,43.31
2023-03-17T20:20:57.553Z,44.09
2023-03-17T20:23:25.077Z,42.59
2023-03-17T20:25:52.682Z,42.24
2023-03-17T20:28:21.486Z,42.24
2023-03-17T20:30:49.359Z,42.49
2023-03-17T20:33:16.837Z,42.76
2023-03-17T20:35:46.829Z,43.63
2023-03-17T20:38:14.741Z,44.24
2023-03-17T20:40:42.125Z,44.38
2023-03-17T20:43:09.477Z,43.68
2023-03-17T20:45:37.041Z,44.74
2023-03-17T20:48:06.107Z,44.98
2023-03-17T20:50:33.554Z,43.65
2023-03-17T20:53:00.482Z,44.49
2023-03-17T20:55:27.449Z,43.32
2023-03-17T20:57:54.059Z,43.51
2023-03-17T21:00:21.309Z,42.92
2023-03-17T21:02:51.110Z,42.52
2023-03-17T21:05:23.165Z,42.38
2023-03-17T21:07:49.756Z,42.90
2023-03-17T21:10:16.767Z,43.54
2023-03-17T21:12:43.732Z,42.99
2023-03-17T21:15:11.047Z,44.48
2023-03-17T21:17:40.492Z,44.76
2023-03-17T21:20:09.597Z,44.83
2023-03-17T21:22:37.037Z,45.03
2023-03-17T21:25:04.771Z,44.56
2023-03-17T21:27:31.560Z,44.87
2023-03-17T21:29:58.133Z,45.79
2023-03-17T21:32:24.793Z,45.97
2023-03-17T21:34:51.710Z,45.93
2023-03-17T21:37:18.864Z,46.08
2023-03-17T21:39:45.939Z,46.25
2023-03-17T21:42:12.865Z,46.20
2023-03-17T21:44:39.830Z,45.47
2023-03-17T21:47:06.432Z,46.04
2023-03-17T21:49:32.998Z,46.12
2023-03-17T21:52:00.589Z,46.24
2023-03-17T21:54:28.469Z,46.18
2023-03-17T21:56:55.045Z,47.08
2023-03-17T21:59:21.618Z,47.15
2023-03-17T22:01:52.040Z,47.21
2023-03-17T22:04:18.964Z,47.85
2023-03-17T22:06:45.544Z,47.86
2023-03-17T22:09:13.055Z,47.67
2023-03-17T22:11:39.595Z,47.77
2023-03-17T22:14:06.568Z,47.54
2023-03-17T22:16:34.248Z,48.13
2023-03-17T22:19:01.548Z,47.99
2023-03-17T22:21:29.883Z,48.05
2023-03-17T22:23:56.446Z,48.01
2023-03-17T22:26:23.008Z,48.17
2023-03-17T22:28:50.300Z,48.61
2023-03-17T22:31:23.108Z,48.55
2023-03-17T22:33:52.392Z,48.58
2023-03-17T22:36:19.577Z,48.72
2023-03-17T22:38:46.373Z,48.97
2023-03-17T22:41:15.137Z,49.03
2023-03-17T22:43:42.349Z,49.28
2023-03-17T22:46:09.712Z,49.93
2023-03-17T22:48:36.714Z,50.27
2023-03-17T22:51:05.876Z,50.64
2023-03-17T22:53:32.982Z,51.22
2023-03-17T22:56:00.244Z,51.22
2023-03-17T22:58:27.434Z,51.40
2023-03-17T23:00:55.368Z,50.48
2023-03-17T23:03:23.042Z,50.55
2023-03-17T23:05:52.024Z,50.61
2023-03-17T23:08:19.635Z,50.76
2023-03-17T23:10:48.801Z,50.01
2023-03-17T23:13:16.269Z,50.54
2023-03-17T23:15:43.022Z,51.06
2023-03-17T23:18:10.379Z,50.85
2023-03-17T23:20:39.946Z,49.86
2023-03-17T23:23:07.493Z,50.17
2023-03-17T23:25:34.947Z,50.32
2023-03-17T23:28:02.320Z,50.08
2023-03-17T23:30:29.283Z,49.76
2023-03-17T23:32:56.001Z,50.32
2023-03-17T23:35:23.273Z,50.01
2023-03-17T23:37:49.872Z,49.55
2023-03-17T23:40:17.396Z,50.17
2023-03-17T23:42:44.745Z,49.85
2023-03-17T23:45:11.916Z,49.19
2023-03-17T23:47:38.676Z,48.87
2023-03-17T23:50:05.652Z,48.07
2023-03-17T23:52:32.765Z,49.58
2023-03-17T23:55:01.084Z,48.33
2023-03-17T23:57:27.819Z,49.19
2023-03-17T23:59:54.404Z,48.75
